Time;durP1;ratioP1;P1;durP2;ratioP2;P2;SDS_P1;SDS_P2;PMS_P1;PMS_P2;Temp;Humidity;BMP_temperature;BMP_pressure;BME280_temperature;BME280_humidity;BME280_pressure;Samples;Min_cycle;Max_cycle;Signal;HPM_P1;HPM_P2
2022/03/19 00:01:36;;;;;;;;;;;;;;;19.17;56.88;103461.16;4999350;28;1906;-39
2022/03/19 00:04:08;;;;;;;;;;;;;;;19.19;55.43;103467.34;5003967;28;1406;-39
2022/03/19 00:06:37;;;;;;;;;;;;;;;19.23;55.89;103459.06;5009254;28;1849;-38
2022/03/19 00:09:04;;;;;;;;;;;;;;;19.23;56.44;103458.22;4999393;28;1991;-38
2022/03/19 00:11:39;;;;;;;;;;;;;;;19.19;55.99;103468.19;5002119;28;1389;-39
2022/03/19 00:14:18;;;;;;;;;;;;;;;19.17;55.95;103456.66;5006037;28;1632;-39
2022/03/19 00:16:44;;;;;;;;;;;;;;;19.14;56.05;103463.97;5012565;28;1695;-39
2022/03/19 00:19:16;;;;;;;;;;;;;;;19.01;55.78;103459.19;5010020;28;1528;-39
2022/03/19 00:21:44;;;;;;;;;;;;;;;18.97;56.08;103454.91;5000066;28;1902;-39
2022/03/19 00:24:11;;;;;;;;;;;;;;;19.00;55.85;103465.50;5001511;28;1609;-37
2022/03/19 00:29:22;;;;;;;;;;;;;;;18.86;55.98;103447.38;5004597;28;2510;-39
2022/03/19 00:31:48;;;;;;;;;;;;;;;18.83;56.05;103452.84;4997210;28;1843;-38
2022/03/19 00:34:21;;;;;;;;;;;;;;;18.77;56.03;103460.28;5013574;28;1823;-38
2022/03/19 00:36:50;;;;;;;;;;;;;;;18.71;56.06;103460.53;5012483;28;1736;-38
2022/03/19 00:39:17;;;;;;;;;;;;;;;18.67;56.52;103458.00;5008171;28;1783;-38
2022/03/19 00:41:45;;;;;;;;;;;;;;;18.62;56.92;103449.31;5011646;28;1977;-38
2022/03/19 00:44:14;;;;;;;;;;;;;;;18.61;56.81;103449.34;5009026;28;1908;-39
2022/03/19 00:46:41;;;;;;;;;;;;;;;18.60;56.29;103456.53;5012447;28;1768;-39
2022/03/19 00:49:10;;;;;;;;;;;;;;;18.57;56.27;103450.44;5007589;28;1793;-39
2022/03/19 00:51:42;;;;;;;;;;;;;;;18.58;54.96;103453.06;5008711;28;1679;-38
2022/03/19 00:54:21;;;;;;;;;;;;;;;18.52;54.59;103453.28;5004881;28;1569;-38
2022/03/19 00:56:57;;;;;;;;;;;;;;;18.52;56.32;103445.25;4999606;28;1785;-39
2022/03/19 00:59:26;;;;;;;;;;;;;;;18.51;55.22;103443.53;5000625;28;1464;-38
2022/03/19 01:01:53;;;;;;;;;;;;;;;18.53;55.69;103441.66;5005012;28;1955;-38
2022/03/19 01:04:27;;;;;;;;;;;;;;;18.56;56.38;103454.94;5009557;28;1780;-38
2022/03/19 01:06:56;;;;;;;;;;;;;;;18.55;56.33;103450.50;5008038;28;1645;-39
2022/03/19 01:09:22;;;;;;;;;;;;;;;18.58;55.97;103446.81;4999913;28;2066;-39
2022/03/19 01:11:49;;;;;;;;;;;;;;;18.58;56.34;103458.41;5011303;28;1941;-39
2022/03/19 01:14:23;;;;;;;;;;;;;;;18.60;56.65;103451.19;4994781;28;1871;-39
2022/03/19 01:16:50;;;;;;;;;;;;;;;18.54;56.69;103429.97;4999492;28;1598;-39
2022/03/19 01:19:52;;;;;;;;;;;;;;;18.59;56.62;103444.06;5014121;28;1795;-39
2022/03/19 01:22:14;;;;;;;;;;;;;;;18.61;56.27;103441.31;4994992;28;1910;-39
2022/03/19 01:24:42;;;;;;;;;;;;;;;18.60;56.14;103432.41;4999740;28;1708;-40
2022/03/19 01:27:08;;;;;;;;;;;;;;;18.58;56.23;103447.69;5011667;28;1570;-39
2022/03/19 01:29:35;;;;;;;;;;;;;;;18.49;56.46;103432.88;5009053;28;1836;-39
2022/03/19 01:32:06;;;;;;;;;;;;;;;18.50;56.19;103444.44;5013154;28;1973;-39
2022/03/19 01:34:34;;;;;;;;;;;;;;;18.48;55.61;103433.81;5008372;28;1597;-39
2022/03/19 01:37:02;;;;;;;;;;;;;;;18.43;56.05;103429.59;5008374;28;1715;-39
2022/03/19 01:39:30;;;;;;;;;;;;;;;18.44;56.46;103431.31;5004037;28;1976;-39
2022/03/19 01:41:58;;;;;;;;;;;;;;;18.44;55.20;103428.66;5004210;28;1979;-39
2022/03/19 01:44:27;;;;;;;;;;;;;;;18.44;55.42;103428.66;5004619;28;1982;-39
2022/03/19 01:46:58;;;;;;;;;;;;;;;18.43;56.16;103429.59;5012560;28;1971;-38
2022/03/19 01:49:25;;;;;;;;;;;;;;;18.41;55.72;103435.00;5001313;28;2058;-39
2022/03/19 01:51:52;;;;;;;;;;;;;;;18.50;56.34;103439.09;5000674;28;1365;-38
2022/03/19 01:54:25;;;;;;;;;;;;;;;18.48;56.12;103443.66;5008075;28;1602;-38
2022/03/19 01:57:01;;;;;;;;;;;;;;;18.43;56.13;103434.97;5002612;28;1710;-40
2022/03/19 01:59:44;;;;;;;;;;;;;;;18.42;55.99;103430.53;5009960;28;1469;-39
2022/03/19 02:02:13;;;;;;;;;;;;;;;18.43;55.29;103433.16;5011073;28;1976;-39
2022/03/19 02:04:41;;;;;;;;;;;;;;;18.56;55.85;103427.25;5011636;28;1835;-40
2022/03/19 02:07:09;;;;;;;;;;;;;;;18.77;55.18;103439.69;5001687;28;1655;-39
2022/03/19 02:09:35;;;;;;;;;;;;;;;18.89;54.39;103435.63;4996799;28;1374;-38
2022/03/19 02:12:15;;;;;;;;;;;;;;;19.04;54.63;103440.28;4998669;28;1861;-38
2022/03/19 02:14:44;;;;;;;;;;;;;;;19.12;54.23;103441.72;5002954;28;1120;-38
2022/03/19 02:17:20;;;;;;;;;;;;;;;19.18;54.01;103434.28;5005387;28;1901;-38
2022/03/19 02:19:53;;;;;;;;;;;;;;;19.22;53.71;103421.59;5015433;28;1808;-39
2022/03/19 02:22:34;;;;;;;;;;;;;;;19.25;54.65;103432.19;5007175;28;1975;-37
2022/03/19 02:27:52;;;;;;;;;;;;;;;19.05;54.45;103412.50;5011283;28;1897;-38
2022/03/19 02:30:19;;;;;;;;;;;;;;;18.97;54.80;103416.50;5017689;28;1719;-39
2022/03/19 02:32:49;;;;;;;;;;;;;;;18.93;54.51;103423.81;5013976;28;1893;-38
2022/03/19 02:35:30;;;;;;;;;;;;;;;18.94;54.68;103433.63;5014485;28;1872;-38
2022/03/19 02:37:57;;;;;;;;;;;;;;;18.89;54.26;103422.22;5007588;28;1789;-38
2022/03/19 02:40:30;;;;;;;;;;;;;;;18.84;54.74;103416.19;5012125;28;1526;-40
2022/03/19 02:42:57;;;;;;;;;;;;;;;18.78;54.81;103425.38;5014520;28;1910;-39
2022/03/19 02:45:38;;;;;;;;;;;;;;;18.74;54.93;103425.53;5011864;28;1068;-39
2022/03/19 02:48:07;;;;;;;;;;;;;;;18.70;54.73;103424.81;5015725;28;1784;-38
2022/03/19 02:50:35;;;;;;;;;;;;;;;18.66;55.18;103426.78;5007577;28;1781;-38
2022/03/19 02:53:13;;;;;;;;;;;;;;;18.62;54.20;103419.81;5008609;28;1756;-39
2022/03/19 02:55:46;;;;;;;;;;;;;;;18.56;53.59;103422.78;5008042;28;1705;-38
2022/03/19 02:58:14;;;;;;;;;;;;;;;18.56;53.46;103425.44;5006650;28;1641;-39
2022/03/19 03:03:51;;;;;;;;;;;;;;;18.48;53.40;103430.25;4967931;28;1762;-38
2022/03/19 03:06:17;;;;;;;;;;;;;;;18.43;53.51;103418.88;4967777;28;1007;-38
2022/03/19 03:08:43;;;;;;;;;;;;;;;18.41;54.66;103402.88;4968171;28;1621;-38
2022/03/19 03:11:14;;;;;;;;;;;;;;;18.39;54.33;103398.53;4968866;28;1678;-38
2022/03/19 03:13:43;;;;;;;;;;;;;;;18.36;54.66;103414.72;4973488;28;1944;-38
2022/03/19 03:16:09;;;;;;;;;;;;;;;18.37;54.41;103411.97;4958726;28;1750;-38
2022/03/19 03:18:39;;;;;;;;;;;;;;;18.35;53.83;103418.34;4964640;28;1004;-38
2022/03/19 03:21:06;;;;;;;;;;;;;;;18.31;54.97;103427.47;4958535;28;2013;-38
2022/03/19 03:23:35;;;;;;;;;;;;;;;18.25;54.52;103405.34;4975196;28;2088;-38
2022/03/19 03:26:02;;;;;;;;;;;;;;;18.23;54.58;103415.25;4964884;28;1637;-39
2022/03/19 03:28:33;;;;;;;;;;;;;;;18.23;54.92;103415.25;4965974;28;1756;-38
2022/03/19 03:33:42;;;;;;;;;;;;;;;18.20;54.19;103428.75;4957763;28;2339;-37
2022/03/19 03:36:09;;;;;;;;;;;;;;;18.18;54.20;103421.75;4969140;28;1918;-37
2022/03/19 03:38:39;;;;;;;;;;;;;;;18.17;54.99;103426.22;4966305;28;1277;-38
2022/03/19 03:41:08;;;;;;;;;;;;;;;18.12;54.53;103414.81;4973064;28;1902;-38
2022/03/19 03:43:36;;;;;;;;;;;;;;;18.12;54.86;103428.22;4970169;28;1676;-38
2022/03/19 03:46:03;;;;;;;;;;;;;;;18.13;55.27;103423.75;4966949;28;1946;-37
2022/03/19 03:48:35;;;;;;;;;;;;;;;18.08;54.71;103424.81;4961021;28;1119;-37
2022/03/19 03:51:02;;;;;;;;;;;;;;;18.08;55.23;103434.63;4973364;28;2017;-38
2022/03/19 03:53:33;;;;;;;;;;;;;;;18.06;55.09;103418.66;4962295;28;2058;-38
2022/03/19 03:56:02;;;;;;;;;;;;;;;18.05;55.46;103432.09;4967035;28;1925;-38
2022/03/19 03:58:29;;;;;;;;;;;;;;;18.03;55.21;103434.84;4974834;28;1601;-37
2022/03/19 04:01:07;;;;;;;;;;;;;;;18.04;55.23;103441.94;4959816;28;1090;-38
2022/03/19 04:03:33;;;;;;;;;;;;;;;18.12;55.54;103446.97;4973091;28;1080;-38
2022/03/19 04:06:02;;;;;;;;;;;;;;;18.22;54.69;103434.97;4971444;28;1928;-38
2022/03/19 04:08:30;;;;;;;;;;;;;;;18.44;53.69;103450.06;4961455;28;1812;-37
2022/03/19 04:10:56;;;;;;;;;;;;;;;18.58;54.22;103450.38;4970594;28;1717;-37
2022/03/19 04:13:24;;;;;;;;;;;;;;;18.64;53.34;103444.75;4966597;28;1675;-37
2022/03/19 04:15:52;;;;;;;;;;;;;;;18.71;53.64;103458.72;4973687;28;1175;-38
2022/03/19 04:18:22;;;;;;;;;;;;;;;18.85;52.99;103463.50;4965134;28;1821;-38
2022/03/19 04:20:51;;;;;;;;;;;;;;;18.77;53.68;103460.28;4964806;28;1977;-37
2022/03/19 04:23:20;;;;;;;;;;;;;;;18.75;53.96;103463.00;4961707;28;1989;-38
2022/03/19 04:28:38;;;;;;;;;;;;;;;18.64;54.08;103465.28;4967105;28;2504;-38
2022/03/19 04:31:12;;;;;;;;;;;;;;;18.64;53.83;103463.50;4975686;28;1449;-38
2022/03/19 04:33:42;;;;;;;;;;;;;;;18.61;53.73;103457.41;4967902;28;1003;-37
2022/03/19 04:38:55;;;;;;;;;;;;;;;18.59;53.58;103465.50;4965894;28;1751;-38
2022/03/19 04:41:24;;;;;;;;;;;;;;;18.71;53.58;103469.44;4966326;28;1910;-37
2022/03/19 04:43:52;;;;;;;;;;;;;;;18.68;53.44;103459.75;4959684;28;1389;-38
2022/03/19 04:46:20;;;;;;;;;;;;;;;18.67;53.88;103468.72;4974703;28;1525;-39
2022/03/19 04:49:01;;;;;;;;;;;;;;;18.69;53.87;103471.34;4969031;28;1701;-38
2022/03/19 04:51:36;;;;;;;;;;;;;;;18.71;53.15;103461.41;4974387;28;1311;-38
2022/03/19 04:54:03;;;;;;;;;;;;;;;18.71;53.52;103477.50;4960515;28;1619;-38
2022/03/19 04:56:33;;;;;;;;;;;;;;;18.71;52.70;103474.81;4968622;28;1878;-37
2022/03/19 04:59:00;;;;;;;;;;;;;;;18.76;52.91;103475.50;4964306;28;1746;-38
2022/03/19 05:01:30;;;;;;;;;;;;;;;19.08;52.89;103468.72;4971489;28;2038;-38
2022/03/19 05:03:57;;;;;;;;;;;;;;;19.45;51.75;103483.06;4961083;28;1643;-37
2022/03/19 05:06:27;;;;;;;;;;;;;;;19.68;52.06;103482.00;4970228;28;1958;-37
2022/03/19 05:11:36;;;;;;;;;;;;;;;19.83;51.35;103482.22;4960885;28;2518;-38
2022/03/19 05:14:04;;;;;;;;;;;;;;;20.02;50.75;103487.56;4961158;28;1670;-38
2022/03/19 05:16:32;;;;;;;;;;;;;;;20.09;50.77;103467.50;4965790;28;1853;-38
2022/03/19 05:18:59;;;;;;;;;;;;;;;20.20;50.59;103488.47;4967610;28;1902;-37
2022/03/19 05:21:28;;;;;;;;;;;;;;;19.97;52.02;103482.41;4968136;28;2381;-37
2022/03/19 05:24:02;;;;;;;;;;;;;;;19.97;50.85;103460.06;4963054;28;1662;-37
2022/03/19 05:26:32;;;;;;;;;;;;;;;19.97;52.06;103477.03;4959960;28;1944;-38
2022/03/19 05:28:59;;;;;;;;;;;;;;;19.93;51.79;103483.50;4959625;28;1535;-38
2022/03/19 05:31:26;;;;;;;;;;;;;;;19.98;53.15;103477.94;4972935;28;1440;-38
2022/03/19 05:36:37;;;;;;;;;;;;;;;19.74;53.25;103491.59;4964558;28;1844;-38
2022/03/19 05:39:05;;;;;;;;;;;;;;;19.57;52.37;103491.50;4965903;28;1489;-37
2022/03/19 05:41:31;;;;;;;;;;;;;;;19.46;53.38;103494.72;4969040;28;1561;-38
2022/03/19 05:43:58;;;;;;;;;;;;;;;19.49;52.55;103491.84;4965952;28;1902;-38
2022/03/19 05:46:24;;;;;;;;;;;;;;;19.51;53.50;103497.16;4969422;28;1568;-38
2022/03/19 05:48:51;;;;;;;;;;;;;;;19.53;52.51;103496.13;4966179;28;1607;-37
2022/03/19 05:51:17;;;;;;;;;;;;;;;19.60;52.21;103496.75;4966228;28;1501;-38
2022/03/19 05:53:44;;;;;;;;;;;;;;;19.72;53.36;103500.69;4966746;28;1063;-38
2022/03/19 05:56:11;;;;;;;;;;;;;;;19.57;53.79;103492.38;4967308;28;1925;-38
2022/03/19 05:58:38;;;;;;;;;;;;;;;19.54;54.15;103497.03;4971607;28;1616;-38
2022/03/19 06:01:04;;;;;;;;;;;;;;;19.53;53.08;103490.78;4974841;28;1635;-39
2022/03/19 06:03:31;;;;;;;;;;;;;;;19.50;54.43;103490.94;4970319;28;2044;-38
2022/03/19 06:05:57;;;;;;;;;;;;;;;19.52;54.02;103488.16;4970022;28;1868;-38
2022/03/19 06:08:24;;;;;;;;;;;;;;;19.52;54.02;103491.72;4960848;28;1593;-38
2022/03/19 06:10:50;;;;;;;;;;;;;;;19.62;52.78;103490.34;4968426;28;1779;-36
2022/03/19 06:13:18;;;;;;;;;;;;;;;19.70;53.79;103495.34;4968465;28;1788;-38
2022/03/19 06:15:44;;;;;;;;;;;;;;;19.66;52.95;103486.56;4974024;28;1689;-38
2022/03/19 06:18:11;;;;;;;;;;;;;;;19.76;54.10;103488.84;4962592;28;1568;-36
2022/03/19 06:20:37;;;;;;;;;;;;;;;20.04;52.21;103489.22;4968663;28;1769;-37
2022/03/19 06:23:04;;;;;;;;;;;;;;;19.92;53.15;103494.34;4968469;28;1926;-36
2022/03/19 06:25:30;;;;;;;;;;;;;;;19.76;52.13;103492.41;4971106;28;1685;-35
2022/03/19 06:27:57;;;;;;;;;;;;;;;19.71;51.86;103481.00;4964998;28;1918;-35
2022/03/19 06:30:25;;;;;;;;;;;;;;;19.82;52.63;103480.50;4974111;28;1706;-36
2022/03/19 06:32:51;;;;;;;;;;;;;;;19.99;52.36;103490.41;4968756;28;1815;-36
2022/03/19 06:37:19;;;;;;;;;;;;;;;19.99;53.70;103488.56;4958606;28;1779;-37
2022/03/19 06:38:03;;;;;;;;;;;;;;;19.90;51.58;103504.28;4962475;28;1940;-35
2022/03/19 06:40:30;;;;;;;;;;;;;;;19.79;48.15;103507.47;4969061;28;1561;-36
2022/03/19 06:42:56;;;;;;;;;;;;;;;19.78;49.74;103501.25;4967004;28;1979;-35
2022/03/19 06:45:23;;;;;;;;;;;;;;;20.19;53.56;103501.03;4965198;28;1082;-35
2022/03/19 06:47:51;;;;;;;;;;;;;;;20.19;52.73;103506.41;4964448;28;2015;-33
2022/03/19 06:50:17;;;;;;;;;;;;;;;20.34;53.68;103501.22;4964141;28;2127;-33
2022/03/19 06:52:44;;;;;;;;;;;;;;;20.27;51.26;103511.38;4964107;28;1847;-36
2022/03/19 06:55:10;;;;;;;;;;;;;;;20.19;52.67;103503.72;4967049;28;1598;-35
2022/03/19 06:57:37;;;;;;;;;;;;;;;20.11;50.19;103500.53;4970626;28;1761;-36
2022/03/19 07:00:04;;;;;;;;;;;;;;;20.24;53.74;103498.97;4966163;28;1075;-39
2022/03/19 07:02:30;;;;;;;;;;;;;;;20.19;52.17;103511.78;4970620;28;1910;-36
2022/03/19 07:05:01;;;;;;;;;;;;;;;20.12;52.98;103502.28;4967537;28;1936;-36
2022/03/19 07:07:39;;;;;;;;;;;;;;;20.22;53.13;103505.38;4967802;28;1769;-37
2022/03/19 07:10:10;;;;;;;;;;;;;;;20.05;52.98;103501.72;4967455;28;1820;-37
2022/03/19 07:12:42;;;;;;;;;;;;;;;20.00;54.53;103486.78;4966573;28;1872;-37
2022/03/19 07:15:09;;;;;;;;;;;;;;;19.92;53.95;103508.63;4967021;28;1724;-37
2022/03/19 07:17:35;;;;;;;;;;;;;;;19.96;52.49;103515.59;4972733;28;1680;-37
2022/03/19 07:20:03;;;;;;;;;;;;;;;20.04;52.95;103508.03;4969456;28;1636;-38
2022/03/19 07:22:45;;;;;;;;;;;;;;;19.96;53.94;103506.69;4967751;28;1976;-39
2022/03/19 07:25:11;;;;;;;;;;;;;;;19.91;53.58;103517.63;4966909;28;1471;-38
2022/03/19 07:27:38;;;;;;;;;;;;;;;19.98;51.66;103520.91;4966096;28;1934;-36
2022/03/19 07:30:05;;;;;;;;;;;;;;;19.96;51.07;103520.09;4968493;28;1465;-37
2022/03/19 07:32:31;;;;;;;;;;;;;;;19.91;53.48;103539.09;4972930;28;1625;-37
2022/03/19 07:34:59;;;;;;;;;;;;;;;19.85;51.77;103512.56;4971506;28;1810;-37
2022/03/19 07:37:28;;;;;;;;;;;;;;;19.80;52.58;103512.78;4975904;28;1527;-37
2022/03/19 07:39:54;;;;;;;;;;;;;;;19.79;52.42;103511.03;4978173;28;1696;-36
2022/03/19 07:42:20;;;;;;;;;;;;;;;19.89;50.15;103515.97;4971919;28;1906;-38
2022/03/19 07:44:46;;;;;;;;;;;;;;;19.94;51.04;103505.88;4971379;28;2010;-37
2022/03/19 07:47:13;;;;;;;;;;;;;;;19.62;49.71;103516.31;4979521;28;2089;-37
2022/03/19 07:49:40;;;;;;;;;;;;;;;19.68;50.85;103516.91;4969644;28;1421;-36
2022/03/19 07:52:13;;;;;;;;;;;;;;;19.81;50.06;103506.44;4964273;28;1538;-37
2022/03/19 07:54:40;;;;;;;;;;;;;;;19.80;50.97;103514.59;4968891;28;1826;-37
2022/03/19 07:57:07;;;;;;;;;;;;;;;19.77;48.59;103504.00;4967418;28;1587;-37
2022/03/19 07:59:34;;;;;;;;;;;;;;;19.68;50.50;103522.25;4966261;28;1058;-37
2022/03/19 08:02:01;;;;;;;;;;;;;;;19.69;50.17;103523.13;4958848;28;1794;-38
2022/03/19 08:04:27;;;;;;;;;;;;;;;19.73;50.77;103514.00;4974310;28;1902;-36
2022/03/19 08:06:55;;;;;;;;;;;;;;;19.77;51.20;103518.28;4974104;28;1650;-36
2022/03/19 08:09:21;;;;;;;;;;;;;;;19.82;50.35;103518.94;4972910;28;1856;-36
2022/03/19 08:11:50;;;;;;;;;;;;;;;19.82;48.61;103526.16;4974625;28;1310;-37
2022/03/19 08:14:16;;;;;;;;;;;;;;;19.77;49.02;103536.22;4966915;28;1421;-36
2022/03/19 08:16:43;;;;;;;;;;;;;;;19.73;50.62;103530.13;4973539;28;1909;-36
2022/03/19 08:19:10;;;;;;;;;;;;;;;19.78;47.80;103522.72;4972547;28;1658;-37
2022/03/19 08:21:38;;;;;;;;;;;;;;;19.82;48.97;103521.63;4963960;28;1544;-37
2022/03/19 08:24:06;;;;;;;;;;;;;;;19.55;45.91;103523.78;4966116;28;1903;-37
2022/03/19 08:26:36;;;;;;;;;;;;;;;19.22;48.22;103518.19;4974683;28;1880;-37
2022/03/19 08:29:04;;;;;;;;;;;;;;;19.28;48.54;103515.22;4967383;28;1084;-36
2022/03/19 08:31:31;;;;;;;;;;;;;;;19.35;49.13;103521.16;4961156;28;1865;-37
2022/03/19 08:33:57;;;;;;;;;;;;;;;19.48;48.63;103514.28;4966185;28;1092;-36
2022/03/19 08:36:24;;;;;;;;;;;;;;;19.48;48.66;103520.53;4960836;28;1790;-37
2022/03/19 08:41:34;;;;;;;;;;;;;;;19.43;50.12;103511.81;4965841;28;1519;-38
2022/03/19 08:44:01;;;;;;;;;;;;;;;19.41;50.45;103512.81;4965514;28;1907;-37
2022/03/19 08:46:29;;;;;;;;;;;;;;;19.30;50.61;103507.97;4964995;28;1636;-36
2022/03/19 08:48:55;;;;;;;;;;;;;;;19.32;50.02;103514.13;4969595;28;1516;-36
2022/03/19 08:51:42;;;;;;;;;;;;;;;19.36;49.78;103507.69;4968543;28;1712;-36
2022/03/19 08:54:09;;;;;;;;;;;;;;;19.31;49.34;103512.38;4961797;28;1486;-36
2022/03/19 08:56:36;;;;;;;;;;;;;;;19.26;45.55;103511.72;4969559;28;1070;-37
2022/03/19 08:59:04;;;;;;;;;;;;;;;19.50;46.46;103528.50;4960867;28;1004;-36
2022/03/19 09:01:34;;;;;;;;;;;;;;;19.39;46.34;103504.84;4959107;28;1893;-35
2022/03/19 09:04:01;;;;;;;;;;;;;;;19.56;47.04;103501.38;4970663;28;1993;-35
2022/03/19 09:06:31;;;;;;;;;;;;;;;19.45;48.83;103490.25;4973447;28;1946;-35
2022/03/19 09:11:40;;;;;;;;;;;;;;;19.66;47.04;103509.88;4974990;28;2543;-35
2022/03/19 09:14:07;;;;;;;;;;;;;;;19.42;47.87;103526.19;4967612;28;1747;-35
2022/03/19 09:16:40;;;;;;;;;;;;;;;19.28;49.62;103515.22;4971220;28;1499;-35
2022/03/19 09:19:14;;;;;;;;;;;;;;;19.21;48.73;103511.06;4973330;28;1340;-35
2022/03/19 09:21:48;;;;;;;;;;;;;;;19.65;47.31;103492.00;4971860;28;1359;-34
2022/03/19 09:24:16;;;;;;;;;;;;;;;19.77;47.26;103493.25;4973153;28;1910;-34
2022/03/19 09:26:46;;;;;;;;;;;;;;;19.71;48.88;103501.59;4969891;28;1421;-35
2022/03/19 09:29:14;;;;;;;;;;;;;;;19.58;48.52;103506.69;4968463;28;1354;-34
2022/03/19 09:31:51;;;;;;;;;;;;;;;19.71;48.90;103483.69;4972895;28;1561;-35
2022/03/19 09:34:17;;;;;;;;;;;;;;;19.55;49.29;103504.13;4975295;28;1227;-35
2022/03/19 09:36:46;;;;;;;;;;;;;;;19.55;49.44;103510.34;4970331;28;1639;-35
2022/03/19 09:39:17;;;;;;;;;;;;;;;19.38;50.54;103503.13;4969781;28;1849;-36
2022/03/19 09:41:45;;;;;;;;;;;;;;;19.44;49.51;103510.88;4971491;28;1634;-35
2022/03/19 09:44:24;;;;;;;;;;;;;;;19.44;50.92;103508.19;4969035;28;2013;-35
2022/03/19 09:46:58;;;;;;;;;;;;;;;19.47;50.12;103508.03;4967574;28;1376;-35
2022/03/19 09:49:27;;;;;;;;;;;;;;;19.54;50.09;103507.78;4970487;28;1597;-35
2022/03/19 09:51:58;;;;;;;;;;;;;;;19.55;50.51;103501.44;4970888;28;1414;-35
2022/03/19 09:54:26;;;;;;;;;;;;;;;19.42;50.72;103502.03;4971890;28;2174;-35
2022/03/19 09:56:57;;;;;;;;;;;;;;;19.46;50.29;103505.44;4972772;28;1957;-36
2022/03/19 09:59:27;;;;;;;;;;;;;;;19.59;50.15;103500.34;4967380;28;1208;-35
2022/03/19 10:01:59;;;;;;;;;;;;;;;19.65;49.71;103505.44;4972166;28;1439;-35
2022/03/19 10:04:53;;;;;;;;;;;;;;;19.67;49.33;103499.03;4961492;28;1907;-35
2022/03/19 10:10:11;;;;;;;;;;;;;;;19.69;49.59;103482.84;4961724;28;1771;-35
2022/03/19 10:12:53;;;;;;;;;;;;;;;19.57;49.94;103496.88;4970867;28;1675;-35
2022/03/19 10:15:25;;;;;;;;;;;;;;;19.39;50.13;103501.28;4973907;28;1713;-35
2022/03/19 10:18:02;;;;;;;;;;;;;;;19.34;50.24;103501.50;4969302;28;1303;-35
2022/03/19 10:20:39;;;;;;;;;;;;;;;19.23;49.94;103501.13;4973305;28;1758;-34
2022/03/19 10:23:06;;;;;;;;;;;;;;;19.16;50.21;103508.59;4972412;28;1946;-35
2022/03/19 10:25:36;;;;;;;;;;;;;;;19.19;49.97;103502.22;4966686;28;1615;-35
2022/03/19 10:28:08;;;;;;;;;;;;;;;19.16;50.66;103511.28;4963157;28;1701;-35
2022/03/19 10:30:40;;;;;;;;;;;;;;;19.02;51.17;103505.63;4966106;28;1715;-35
2022/03/19 10:33:12;;;;;;;;;;;;;;;19.07;53.87;103503.63;4972165;28;1988;-35
2022/03/19 10:35:42;;;;;;;;;;;;;;;19.16;57.03;103507.69;4968772;28;1608;-35
2022/03/19 10:38:18;;;;;;;;;;;;;;;19.26;57.91;103487.59;4962605;28;2051;-35
2022/03/19 10:40:47;;;;;;;;;;;;;;;19.23;62.05;103507.34;4976729;28;1288;-35
2022/03/19 10:43:17;;;;;;;;;;;;;;;19.19;64.85;103494.16;4974774;28;1910;-35
2022/03/19 10:45:47;;;;;;;;;;;;;;;19.16;60.65;103496.97;4978001;28;1283;-35
2022/03/19 10:48:30;;;;;;;;;;;;;;;19.16;63.23;103500.53;4969869;28;1903;-35
2022/03/19 10:51:01;;;;;;;;;;;;;;;19.10;63.94;103492.78;4977551;28;1764;-35
2022/03/19 10:53:27;;;;;;;;;;;;;;;19.04;62.16;103464.44;4975468;28;1502;-35
2022/03/19 10:55:57;;;;;;;;;;;;;;;19.03;61.33;103478.75;4975055;28;1587;-35
2022/03/19 10:58:24;;;;;;;;;;;;;;;19.04;61.55;103485.88;4974372;28;1699;-35
2022/03/19 11:00:52;;;;;;;;;;;;;;;18.97;61.88;103475.50;4978163;28;1076;-35
2022/03/19 11:03:31;;;;;;;;;;;;;;;19.02;60.53;103469.00;4977617;28;1958;-35
2022/03/19 11:06:03;;;;;;;;;;;;;;;19.00;60.63;103475.34;4975699;28;1737;-35
2022/03/19 11:08:38;;;;;;;;;;;;;;;18.95;59.66;103446.06;4974862;28;1697;-36
2022/03/19 11:11:08;;;;;;;;;;;;;;;18.93;60.42;103457.81;4975492;28;1963;-36
2022/03/19 11:13:54;;;;;;;;;;;;;;;19.00;59.23;103464.63;4973416;28;1354;-35
2022/03/19 11:16:29;;;;;;;;;;;;;;;19.12;59.02;103453.34;4976237;28;1935;-35
2022/03/19 11:19:02;;;;;;;;;;;;;;;19.13;59.80;103459.56;4974296;28;1556;-35
2022/03/19 11:21:34;;;;;;;;;;;;;;;19.30;58.69;103474.88;4975382;28;1633;-35
2022/03/19 11:24:08;;;;;;;;;;;;;;;19.18;59.22;103463.78;4974995;28;1902;-36
2022/03/19 11:26:37;;;;;;;;;;;;;;;19.38;58.67;103462.00;4977335;28;1426;-35
2022/03/19 11:29:08;;;;;;;;;;;;;;;19.67;58.07;103439.09;4973540;28;1415;-35
2022/03/19 11:31:37;;;;;;;;;;;;;;;19.77;58.42;103456.53;4977077;28;1553;-35
2022/03/19 11:34:19;;;;;;;;;;;;;;;19.45;58.53;103445.50;4977475;28;1256;-35
2022/03/19 11:36:58;;;;;;;;;;;;;;;19.33;59.56;103447.91;4974331;28;1634;-35
2022/03/19 11:42:13;;;;;;;;;;;;;;;19.42;58.15;103445.66;4974453;28;1732;-35
2022/03/19 11:44:48;;;;;;;;;;;;;;;19.66;56.05;103426.66;4967411;28;1976;-34
2022/03/19 11:47:17;;;;;;;;;;;;;;;19.56;57.07;103436.97;4975681;28;2025;-34
2022/03/19 11:49:57;;;;;;;;;;;;;;;19.56;57.47;103430.72;4970264;28;1366;-35
2022/03/19 11:52:50;;;;;;;;;;;;;;;19.82;57.39;103435.72;4969706;28;1370;-34
2022/03/19 11:55:18;;;;;;;;;;;;;;;20.20;55.23;103432.91;4963267;28;1937;-35
2022/03/19 11:57:55;;;;;;;;;;;;;;;20.63;54.35;103448.63;4971873;28;1512;-34
2022/03/19 12:00:30;;;;;;;;;;;;;;;20.39;55.51;103432.84;4975342;28;1474;-36
2022/03/19 12:03:03;;;;;;;;;;;;;;;20.32;56.20;103433.22;4972874;28;1487;-35
2022/03/19 12:05:32;;;;;;;;;;;;;;;20.42;55.33;103438.03;4975166;28;1902;-35
2022/03/19 12:08:05;;;;;;;;;;;;;;;20.46;54.00;103436.06;4973182;28;2218;-36
2022/03/19 12:10:38;;;;;;;;;;;;;;;20.70;53.71;103439.31;4969937;28;1818;-35
2022/03/19 12:13:21;;;;;;;;;;;;;;;20.53;53.93;103432.13;4971841;28;1745;-35
2022/03/19 12:15:48;;;;;;;;;;;;;;;20.60;54.56;103430.84;4973762;28;1735;-35
2022/03/19 12:18:28;;;;;;;;;;;;;;;20.41;55.30;103412.13;4970189;28;2018;-35
2022/03/19 12:20:57;;;;;;;;;;;;;;;19.89;56.80;103428.22;4964926;28;1755;-35
2022/03/19 12:23:24;;;;;;;;;;;;;;;19.79;57.00;103425.09;4965917;28;1653;-35
2022/03/19 12:25:54;;;;;;;;;;;;;;;19.67;58.65;103428.38;4966056;28;1903;-36
2022/03/19 12:28:21;;;;;;;;;;;;;;;19.72;58.12;103426.38;4967943;28;1592;-36
2022/03/19 12:30:47;;;;;;;;;;;;;;;19.63;58.77;103427.66;4974858;28;1898;-35
2022/03/19 12:33:14;;;;;;;;;;;;;;;19.70;58.86;103422.88;4971028;28;1887;-35
2022/03/19 12:35:42;;;;;;;;;;;;;;;19.91;58.42;103420.09;4973560;28;1609;-34
2022/03/19 12:38:10;;;;;;;;;;;;;;;19.97;56.51;103406.34;4966022;28;1518;-34
2022/03/19 12:43:21;;;;;;;;;;;;;;;19.57;58.86;103416.34;4965597;28;1799;-35
2022/03/19 12:45:50;;;;;;;;;;;;;;;19.47;59.06;103403.38;4973482;28;1972;-35
2022/03/19 12:48:18;;;;;;;;;;;;;;;19.63;57.37;103405.31;4974170;28;1822;-35
2022/03/19 12:50:48;;;;;;;;;;;;;;;19.69;58.70;103410.38;4971940;28;1752;-37
2022/03/19 12:53:16;;;;;;;;;;;;;;;19.70;59.90;103411.25;4966130;28;2037;-35
2022/03/19 12:55:42;;;;;;;;;;;;;;;19.63;58.56;103400.78;4967969;28;1707;-34
2022/03/19 12:58:09;;;;;;;;;;;;;;;19.68;58.97;103408.66;4970801;28;1663;-35
2022/03/19 13:00:35;;;;;;;;;;;;;;;19.58;59.42;103380.53;4971054;28;1713;-35
2022/03/19 13:03:02;;;;;;;;;;;;;;;19.53;59.39;103406.69;4972280;28;1790;-35
2022/03/19 13:05:28;;;;;;;;;;;;;;;19.51;59.45;103409.47;4964537;28;1907;-35
2022/03/19 13:08:02;;;;;;;;;;;;;;;19.42;60.29;103389.31;4970613;28;1738;-35
2022/03/19 13:10:30;;;;;;;;;;;;;;;19.47;60.57;103411.41;4972338;28;1942;-35
2022/03/19 13:13:03;;;;;;;;;;;;;;;19.42;59.25;103380.41;4966703;28;1876;-36
2022/03/19 13:15:30;;;;;;;;;;;;;;;19.36;59.68;103405.72;4974625;28;1928;-36
2022/03/19 13:17:56;;;;;;;;;;;;;;;19.30;60.65;103408.69;4969557;28;1978;-35
2022/03/19 13:20:23;;;;;;;;;;;;;;;19.18;60.14;103409.25;4965851;28;1586;-35
2022/03/19 13:22:49;;;;;;;;;;;;;;;19.11;60.76;103389.03;4965086;28;1760;-35
2022/03/19 13:25:18;;;;;;;;;;;;;;;19.11;59.98;103394.41;4965315;28;1983;-35
2022/03/19 13:27:56;;;;;;;;;;;;;;;19.18;58.62;103396.72;4968380;28;1793;-35
2022/03/19 13:30:25;;;;;;;;;;;;;;;19.09;59.80;103397.16;4963959;28;1648;-35
2022/03/19 13:32:59;;;;;;;;;;;;;;;18.98;59.54;103391.41;4967541;28;1795;-35
2022/03/19 13:35:42;;;;;;;;;;;;;;;18.98;59.62;103389.63;4968507;28;1631;-35
2022/03/19 13:38:12;;;;;;;;;;;;;;;18.94;59.85;103396.06;4965460;28;1776;-35